sensor_id;sensor_type;location;lat;lon;timestamp;temperature;humidity
792;DHT22;379;49.022;12.148;2022-07-29T00:01:43;20.00;61.60
792;DHT22;379;49.022;12.148;2022-07-29T00:04:12;19.90;61.80
792;DHT22;379;49.022;12.148;2022-07-29T00:06:39;19.90;62.00
792;DHT22;379;49.022;12.148;2022-07-29T00:09:06;19.90;62.90
792;DHT22;379;49.022;12.148;2022-07-29T00:11:33;19.90;63.60
792;DHT22;379;49.022;12.148;2022-07-29T00:14:00;19.90;65.10
792;DHT22;379;49.022;12.148;2022-07-29T00:16:27;19.90;67.10
792;DHT22;379;49.022;12.148;2022-07-29T00:18:53;20.00;63.80
792;DHT22;379;49.022;12.148;2022-07-29T00:21:21;20.10;62.50
792;DHT22;379;49.022;12.148;2022-07-29T00:23:48;20.30;61.40
792;DHT22;379;49.022;12.148;2022-07-29T00:26:15;20.40;60.90
792;DHT22;379;49.022;12.148;2022-07-29T00:28:42;20.40;60.70
792;DHT22;379;49.022;12.148;2022-07-29T00:31:08;20.50;60.70
792;DHT22;379;49.022;12.148;2022-07-29T00:33:36;20.50;60.50
792;DHT22;379;49.022;12.148;2022-07-29T00:36:03;20.40;60.40
792;DHT22;379;49.022;12.148;2022-07-29T00:38:30;20.40;60.30
792;DHT22;379;49.022;12.148;2022-07-29T00:40:57;20.40;60.10
792;DHT22;379;49.022;12.148;2022-07-29T00:43:24;20.40;60.20
792;DHT22;379;49.022;12.148;2022-07-29T00:45:50;20.40;60.50
792;DHT22;379;49.022;12.148;2022-07-29T00:48:17;20.40;61.50
792;DHT22;379;49.022;12.148;2022-07-29T00:50:44;20.30;61.80
792;DHT22;379;49.022;12.148;2022-07-29T00:53:12;20.20;62.00
792;DHT22;379;49.022;12.148;2022-07-29T00:55:40;20.10;62.80
792;DHT22;379;49.022;12.148;2022-07-29T00:58:07;20.10;62.00
792;DHT22;379;49.022;12.148;2022-07-29T01:00:34;20.00;61.90
792;DHT22;379;49.022;12.148;2022-07-29T01:03:02;19.90;61.70
792;DHT22;379;49.022;12.148;2022-07-29T01:05:29;19.90;62.20
792;DHT22;379;49.022;12.148;2022-07-29T01:07:57;19.80;63.10
792;DHT22;379;49.022;12.148;2022-07-29T01:10:24;19.80;64.20
792;DHT22;379;49.022;12.148;2022-07-29T01:12:55;19.70;63.40
792;DHT22;379;49.022;12.148;2022-07-29T01:15:23;19.80;63.00
792;DHT22;379;49.022;12.148;2022-07-29T01:17:56;19.70;62.40
792;DHT22;379;49.022;12.148;2022-07-29T01:20:31;19.70;62.50
792;DHT22;379;49.022;12.148;2022-07-29T01:23:16;19.60;62.50
792;DHT22;379;49.022;12.148;2022-07-29T01:26:01;19.50;62.60
792;DHT22;379;49.022;12.148;2022-07-29T01:29:00;19.50;62.70
792;DHT22;379;49.022;12.148;2022-07-29T01:31:33;19.50;62.90
792;DHT22;379;49.022;12.148;2022-07-29T01:34:03;19.50;63.20
792;DHT22;379;49.022;12.148;2022-07-29T01:36:35;19.40;63.30
792;DHT22;379;49.022;12.148;2022-07-29T01:39:07;19.30;63.80
792;DHT22;379;49.022;12.148;2022-07-29T01:41:38;19.30;64.10
792;DHT22;379;49.022;12.148;2022-07-29T01:44:18;19.20;64.10
792;DHT22;379;49.022;12.148;2022-07-29T01:46:52;19.20;64.40
792;DHT22;379;49.022;12.148;2022-07-29T01:49:27;19.10;64.40
792;DHT22;379;49.022;12.148;2022-07-29T01:51:58;19.00;64.80
792;DHT22;379;49.022;12.148;2022-07-29T01:54:32;19.00;65.40
792;DHT22;379;49.022;12.148;2022-07-29T01:57:01;19.00;65.40
792;DHT22;379;49.022;12.148;2022-07-29T01:59:33;19.00;65.70
792;DHT22;379;49.022;12.148;2022-07-29T02:02:01;19.00;65.50
792;DHT22;379;49.022;12.148;2022-07-29T02:04:29;19.00;65.60
792;DHT22;379;49.022;12.148;2022-07-29T02:07:00;18.90;66.00
792;DHT22;379;49.022;12.148;2022-07-29T02:09:28;18.90;66.60
792;DHT22;379;49.022;12.148;2022-07-29T02:11:57;18.90;67.60
792;DHT22;379;49.022;12.148;2022-07-29T02:14:29;18.90;67.30
792;DHT22;379;49.022;12.148;2022-07-29T02:16:59;18.80;67.20
792;DHT22;379;49.022;12.148;2022-07-29T02:19:27;18.80;67.30
792;DHT22;379;49.022;12.148;2022-07-29T02:21:56;18.80;67.40
792;DHT22;379;49.022;12.148;2022-07-29T02:24:25;18.90;67.50
792;DHT22;379;49.022;12.148;2022-07-29T02:26:55;18.90;67.40
792;DHT22;379;49.022;12.148;2022-07-29T02:29:25;18.90;67.50
792;DHT22;379;49.022;12.148;2022-07-29T02:31:54;18.80;67.40
792;DHT22;379;49.022;12.148;2022-07-29T02:34:23;18.80;67.40
792;DHT22;379;49.022;12.148;2022-07-29T02:36:51;18.70;67.20
792;DHT22;379;49.022;12.148;2022-07-29T02:39:19;18.70;67.40
792;DHT22;379;49.022;12.148;2022-07-29T02:41:47;18.60;67.30
792;DHT22;379;49.022;12.148;2022-07-29T02:44:16;18.60;67.20
792;DHT22;379;49.022;12.148;2022-07-29T02:46:49;18.60;67.10
792;DHT22;379;49.022;12.148;2022-07-29T02:49:28;18.50;67.30
792;DHT22;379;49.022;12.148;2022-07-29T02:52:03;18.50;67.30
792;DHT22;379;49.022;12.148;2022-07-29T02:54:33;18.40;67.30
792;DHT22;379;49.022;12.148;2022-07-29T02:57:08;18.40;67.40
792;DHT22;379;49.022;12.148;2022-07-29T02:59:37;18.40;67.50
792;DHT22;379;49.022;12.148;2022-07-29T03:02:07;18.40;67.60
792;DHT22;379;49.022;12.148;2022-07-29T03:04:35;18.40;67.80
792;DHT22;379;49.022;12.148;2022-07-29T03:07:05;18.40;67.80
792;DHT22;379;49.022;12.148;2022-07-29T03:09:32;18.40;67.70
792;DHT22;379;49.022;12.148;2022-07-29T03:12:00;18.40;67.80
792;DHT22;379;49.022;12.148;2022-07-29T03:14:28;18.40;67.80
792;DHT22;379;49.022;12.148;2022-07-29T03:16:55;18.40;67.90
792;DHT22;379;49.022;12.148;2022-07-29T03:19:22;18.40;68.00
792;DHT22;379;49.022;12.148;2022-07-29T03:21:49;18.40;68.10
792;DHT22;379;49.022;12.148;2022-07-29T03:24:28;18.40;68.30
792;DHT22;379;49.022;12.148;2022-07-29T03:26:55;18.40;68.80
792;DHT22;379;49.022;12.148;2022-07-29T03:29:22;18.40;69.00
792;DHT22;379;49.022;12.148;2022-07-29T03:31:49;18.40;68.90
792;DHT22;379;49.022;12.148;2022-07-29T03:34:16;18.50;68.80
792;DHT22;379;49.022;12.148;2022-07-29T03:36:43;18.50;68.80
792;DHT22;379;49.022;12.148;2022-07-29T03:39:10;18.50;69.00
792;DHT22;379;49.022;12.148;2022-07-29T03:41:41;18.50;70.00
792;DHT22;379;49.022;12.148;2022-07-29T03:44:11;18.50;70.40
792;DHT22;379;49.022;12.148;2022-07-29T03:46:39;18.50;70.80
792;DHT22;379;49.022;12.148;2022-07-29T03:49:08;18.50;71.20
792;DHT22;379;49.022;12.148;2022-07-29T03:51:36;18.50;73.00
792;DHT22;379;49.022;12.148;2022-07-29T03:54:03;18.60;72.90
792;DHT22;379;49.022;12.148;2022-07-29T03:56:32;18.60;72.50
792;DHT22;379;49.022;12.148;2022-07-29T03:59:02;18.60;72.30
792;DHT22;379;49.022;12.148;2022-07-29T04:01:29;18.60;72.30
792;DHT22;379;49.022;12.148;2022-07-29T04:03:57;18.60;72.60
792;DHT22;379;49.022;12.148;2022-07-29T04:06:24;18.60;72.70
792;DHT22;379;49.022;12.148;2022-07-29T04:08:51;18.60;72.60
792;DHT22;379;49.022;12.148;2022-07-29T04:11:18;18.60;72.60
792;DHT22;379;49.022;12.148;2022-07-29T04:13:45;18.60;72.60
792;DHT22;379;49.022;12.148;2022-07-29T04:16:13;18.70;72.70
792;DHT22;379;49.022;12.148;2022-07-29T04:18:39;18.70;72.60
792;DHT22;379;49.022;12.148;2022-07-29T04:21:06;18.70;72.60
792;DHT22;379;49.022;12.148;2022-07-29T04:23:33;18.80;72.50
792;DHT22;379;49.022;12.148;2022-07-29T04:26:00;18.90;72.30
792;DHT22;379;49.022;12.148;2022-07-29T04:28:29;18.90;72.00
792;DHT22;379;49.022;12.148;2022-07-29T04:30:56;19.00;71.70
792;DHT22;379;49.022;12.148;2022-07-29T04:33:24;19.10;71.60
792;DHT22;379;49.022;12.148;2022-07-29T04:35:51;19.10;69.70
792;DHT22;379;49.022;12.148;2022-07-29T04:38:18;19.20;68.10
792;DHT22;379;49.022;12.148;2022-07-29T04:40:45;19.20;68.00
792;DHT22;379;49.022;12.148;2022-07-29T04:43:11;19.40;68.20
792;DHT22;379;49.022;12.148;2022-07-29T04:45:38;19.50;67.90
792;DHT22;379;49.022;12.148;2022-07-29T04:48:05;19.60;67.90
792;DHT22;379;49.022;12.148;2022-07-29T04:50:33;19.60;67.20
792;DHT22;379;49.022;12.148;2022-07-29T04:53:00;19.60;67.10
792;DHT22;379;49.022;12.148;2022-07-29T04:55:27;19.60;67.50
792;DHT22;379;49.022;12.148;2022-07-29T04:57:53;19.50;67.20
792;DHT22;379;49.022;12.148;2022-07-29T05:00:20;19.40;66.30
792;DHT22;379;49.022;12.148;2022-07-29T05:02:48;19.40;65.40
792;DHT22;379;49.022;12.148;2022-07-29T05:05:15;19.30;64.80
792;DHT22;379;49.022;12.148;2022-07-29T05:07:43;19.30;65.00
792;DHT22;379;49.022;12.148;2022-07-29T05:10:10;19.30;64.90
792;DHT22;379;49.022;12.148;2022-07-29T05:12:37;19.30;64.80
792;DHT22;379;49.022;12.148;2022-07-29T05:15:05;19.30;64.80
792;DHT22;379;49.022;12.148;2022-07-29T05:17:32;19.30;64.80
792;DHT22;379;49.022;12.148;2022-07-29T05:19:59;19.30;64.80
792;DHT22;379;49.022;12.148;2022-07-29T05:22:25;19.30;64.90
792;DHT22;379;49.022;12.148;2022-07-29T05:24:54;19.40;64.90
792;DHT22;379;49.022;12.148;2022-07-29T05:27:20;19.40;65.10
792;DHT22;379;49.022;12.148;2022-07-29T05:29:47;19.40;65.20
792;DHT22;379;49.022;12.148;2022-07-29T05:32:14;19.30;65.30
792;DHT22;379;49.022;12.148;2022-07-29T05:34:41;19.40;65.40
792;DHT22;379;49.022;12.148;2022-07-29T05:37:08;19.40;65.40
792;DHT22;379;49.022;12.148;2022-07-29T05:39:34;19.40;65.70
792;DHT22;379;49.022;12.148;2022-07-29T05:42:03;19.40;66.10
792;DHT22;379;49.022;12.148;2022-07-29T05:44:29;19.40;65.60
792;DHT22;379;49.022;12.148;2022-07-29T05:46:56;19.40;65.50
792;DHT22;379;49.022;12.148;2022-07-29T05:49:23;19.50;65.60
792;DHT22;379;49.022;12.148;2022-07-29T05:51:50;19.50;65.30
792;DHT22;379;49.022;12.148;2022-07-29T05:54:16;19.50;65.40
792;DHT22;379;49.022;12.148;2022-07-29T05:56:43;19.50;65.60
792;DHT22;379;49.022;12.148;2022-07-29T05:59:11;19.50;65.20
792;DHT22;379;49.022;12.148;2022-07-29T06:01:38;19.60;65.20
792;DHT22;379;49.022;12.148;2022-07-29T06:04:05;19.70;65.10
792;DHT22;379;49.022;12.148;2022-07-29T06:06:32;19.70;64.20
792;DHT22;379;49.022;12.148;2022-07-29T06:08:59;19.80;63.60
792;DHT22;379;49.022;12.148;2022-07-29T06:11:26;19.90;63.50
792;DHT22;379;49.022;12.148;2022-07-29T06:13:53;20.00;63.70
792;DHT22;379;49.022;12.148;2022-07-29T06:16:21;20.10;63.30
792;DHT22;379;49.022;12.148;2022-07-29T06:18:47;20.30;62.70
792;DHT22;379;49.022;12.148;2022-07-29T06:21:14;20.50;62.40
792;DHT22;379;49.022;12.148;2022-07-29T06:23:41;20.60;61.80
792;DHT22;379;49.022;12.148;2022-07-29T06:26:08;20.70;61.60
792;DHT22;379;49.022;12.148;2022-07-29T06:28:35;20.80;61.30
792;DHT22;379;49.022;12.148;2022-07-29T06:31:01;20.90;61.20
792;DHT22;379;49.022;12.148;2022-07-29T06:33:30;21.20;61.30
792;DHT22;379;49.022;12.148;2022-07-29T06:35:56;21.50;60.70
792;DHT22;379;49.022;12.148;2022-07-29T06:38:23;21.90;60.60
792;DHT22;379;49.022;12.148;2022-07-29T06:40:50;22.20;59.80
792;DHT22;379;49.022;12.148;2022-07-29T06:43:32;22.40;58.70
792;DHT22;379;49.022;12.148;2022-07-29T06:46:03;22.50;58.40
792;DHT22;379;49.022;12.148;2022-07-29T06:48:32;22.80;58.40
792;DHT22;379;49.022;12.148;2022-07-29T06:51:00;23.20;58.40
792;DHT22;379;49.022;12.148;2022-07-29T06:53:27;23.50;58.00
792;DHT22;379;49.022;12.148;2022-07-29T06:55:54;24.00;57.90
792;DHT22;379;49.022;12.148;2022-07-29T06:58:20;24.40;57.60
792;DHT22;379;49.022;12.148;2022-07-29T07:00:48;24.70;57.50
792;DHT22;379;49.022;12.148;2022-07-29T07:03:15;25.00;57.30
792;DHT22;379;49.022;12.148;2022-07-29T07:05:44;25.30;56.70
792;DHT22;379;49.022;12.148;2022-07-29T07:08:11;25.90;56.20
792;DHT22;379;49.022;12.148;2022-07-29T07:10:39;27.00;55.40
792;DHT22;379;49.022;12.148;2022-07-29T07:13:06;28.20;51.90
792;DHT22;379;49.022;12.148;2022-07-29T07:15:33;28.90;49.10
792;DHT22;379;49.022;12.148;2022-07-29T07:18:00;29.60;47.80
792;DHT22;379;49.022;12.148;2022-07-29T07:20:26;30.50;46.80
792;DHT22;379;49.022;12.148;2022-07-29T07:22:55;31.20;43.90
792;DHT22;379;49.022;12.148;2022-07-29T07:25:21;31.50;43.80
792;DHT22;379;49.022;12.148;2022-07-29T07:27:48;31.60;43.00
792;DHT22;379;49.022;12.148;2022-07-29T07:30:15;31.50;42.50
792;DHT22;379;49.022;12.148;2022-07-29T07:32:42;31.50;43.50
792;DHT22;379;49.022;12.148;2022-07-29T07:35:09;31.60;43.10
792;DHT22;379;49.022;12.148;2022-07-29T07:37:37;31.70;42.90
792;DHT22;379;49.022;12.148;2022-07-29T07:40:08;31.70;41.70
792;DHT22;379;49.022;12.148;2022-07-29T07:42:36;31.70;42.30
792;DHT22;379;49.022;12.148;2022-07-29T07:45:04;31.80;42.50
792;DHT22;379;49.022;12.148;2022-07-29T07:47:31;31.90;41.20
792;DHT22;379;49.022;12.148;2022-07-29T07:49:58;31.90;40.60
792;DHT22;379;49.022;12.148;2022-07-29T07:52:25;31.90;41.40
792;DHT22;379;49.022;12.148;2022-07-29T07:54:52;31.90;41.50
792;DHT22;379;49.022;12.148;2022-07-29T07:57:20;32.00;41.70
792;DHT22;379;49.022;12.148;2022-07-29T07:59:47;32.00;41.40
792;DHT22;379;49.022;12.148;2022-07-29T08:02:14;32.20;41.40
792;DHT22;379;49.022;12.148;2022-07-29T08:04:41;32.40;41.20
792;DHT22;379;49.022;12.148;2022-07-29T08:07:07;32.20;40.20
792;DHT22;379;49.022;12.148;2022-07-29T08:09:35;32.20;40.10
792;DHT22;379;49.022;12.148;2022-07-29T08:12:02;32.00;39.80
792;DHT22;379;49.022;12.148;2022-07-29T08:14:32;31.60;40.80
792;DHT22;379;49.022;12.148;2022-07-29T08:16:59;31.60;41.90
792;DHT22;379;49.022;12.148;2022-07-29T08:19:26;31.50;42.20
792;DHT22;379;49.022;12.148;2022-07-29T08:21:53;31.50;42.90
792;DHT22;379;49.022;12.148;2022-07-29T08:24:20;31.50;42.40
792;DHT22;379;49.022;12.148;2022-07-29T08:27:05;31.50;41.30
792;DHT22;379;49.022;12.148;2022-07-29T08:29:33;31.50;41.80
792;DHT22;379;49.022;12.148;2022-07-29T08:32:00;31.50;42.70
792;DHT22;379;49.022;12.148;2022-07-29T08:34:26;31.20;41.90
792;DHT22;379;49.022;12.148;2022-07-29T08:36:54;30.50;43.40
792;DHT22;379;49.022;12.148;2022-07-29T08:39:21;30.00;45.70
792;DHT22;379;49.022;12.148;2022-07-29T08:41:47;29.60;45.20
792;DHT22;379;49.022;12.148;2022-07-29T08:44:16;29.30;46.30
792;DHT22;379;49.022;12.148;2022-07-29T08:46:44;29.00;47.40
792;DHT22;379;49.022;12.148;2022-07-29T08:49:11;28.80;48.50
792;DHT22;379;49.022;12.148;2022-07-29T08:51:40;28.80;48.10
792;DHT22;379;49.022;12.148;2022-07-29T08:54:08;28.80;48.00
792;DHT22;379;49.022;12.148;2022-07-29T08:56:36;29.00;48.60
792;DHT22;379;49.022;12.148;2022-07-29T08:59:03;29.20;48.70
792;DHT22;379;49.022;12.148;2022-07-29T09:01:33;29.40;48.70
792;DHT22;379;49.022;12.148;2022-07-29T09:04:03;29.50;48.40
792;DHT22;379;49.022;12.148;2022-07-29T09:06:32;29.60;48.00
792;DHT22;379;49.022;12.148;2022-07-29T09:09:01;29.70;48.30
792;DHT22;379;49.022;12.148;2022-07-29T09:11:28;29.70;48.30
792;DHT22;379;49.022;12.148;2022-07-29T09:13:54;29.70;48.10
792;DHT22;379;49.022;12.148;2022-07-29T09:16:21;29.80;48.00
792;DHT22;379;49.022;12.148;2022-07-29T09:18:48;29.70;46.80
792;DHT22;379;49.022;12.148;2022-07-29T09:21:17;29.70;47.40
792;DHT22;379;49.022;12.148;2022-07-29T09:24:04;29.80;47.50
792;DHT22;379;49.022;12.148;2022-07-29T09:26:34;29.90;46.60
792;DHT22;379;49.022;12.148;2022-07-29T09:29:08;29.90;45.80
792;DHT22;379;49.022;12.148;2022-07-29T09:31:37;29.80;45.90
792;DHT22;379;49.022;12.148;2022-07-29T09:34:05;29.60;45.90
792;DHT22;379;49.022;12.148;2022-07-29T09:36:38;29.50;46.70
792;DHT22;379;49.022;12.148;2022-07-29T09:39:05;29.30;47.40
792;DHT22;379;49.022;12.148;2022-07-29T09:41:47;29.20;48.30
792;DHT22;379;49.022;12.148;2022-07-29T09:44:15;29.20;47.90
792;DHT22;379;49.022;12.148;2022-07-29T09:46:56;29.20;48.40
792;DHT22;379;49.022;12.148;2022-07-29T09:49:23;29.20;48.60
792;DHT22;379;49.022;12.148;2022-07-29T09:52:04;29.30;48.20
792;DHT22;379;49.022;12.148;2022-07-29T09:54:31;29.40;49.00
792;DHT22;379;49.022;12.148;2022-07-29T09:57:03;29.40;48.10
792;DHT22;379;49.022;12.148;2022-07-29T09:59:31;29.50;48.10
792;DHT22;379;49.022;12.148;2022-07-29T10:01:59;29.70;47.70
792;DHT22;379;49.022;12.148;2022-07-29T10:04:37;29.80;46.80
792;DHT22;379;49.022;12.148;2022-07-29T10:07:06;29.70;46.20
792;DHT22;379;49.022;12.148;2022-07-29T10:09:34;29.40;46.20
792;DHT22;379;49.022;12.148;2022-07-29T10:12:09;29.20;46.40
792;DHT22;379;49.022;12.148;2022-07-29T10:14:37;29.20;47.40
792;DHT22;379;49.022;12.148;2022-07-29T10:17:05;29.50;48.00
792;DHT22;379;49.022;12.148;2022-07-29T10:19:33;29.80;47.30
792;DHT22;379;49.022;12.148;2022-07-29T10:22:02;30.10;46.30
792;DHT22;379;49.022;12.148;2022-07-29T10:24:32;30.20;45.60
792;DHT22;379;49.022;12.148;2022-07-29T10:27:00;30.10;44.40
792;DHT22;379;49.022;12.148;2022-07-29T10:29:27;30.10;45.60
792;DHT22;379;49.022;12.148;2022-07-29T10:35:06;30.10;46.00
792;DHT22;379;49.022;12.148;2022-07-29T10:37:52;30.10;44.90
792;DHT22;379;49.022;12.148;2022-07-29T10:40:36;30.00;44.60
792;DHT22;379;49.022;12.148;2022-07-29T10:43:27;30.00;43.10
792;DHT22;379;49.022;12.148;2022-07-29T10:45:56;29.70;43.80
792;DHT22;379;49.022;12.148;2022-07-29T10:48:23;29.80;45.10
792;DHT22;379;49.022;12.148;2022-07-29T10:50:57;30.10;45.10
792;DHT22;379;49.022;12.148;2022-07-29T10:53:46;30.30;44.40
792;DHT22;379;49.022;12.148;2022-07-29T10:56:25;30.50;44.40
792;DHT22;379;49.022;12.148;2022-07-29T10:59:23;30.30;42.20
792;DHT22;379;49.022;12.148;2022-07-29T11:01:53;29.80;43.00
792;DHT22;379;49.022;12.148;2022-07-29T11:07:22;29.70;45.20
792;DHT22;379;49.022;12.148;2022-07-29T11:10:19;29.90;45.70
792;DHT22;379;49.022;12.148;2022-07-29T11:12:48;30.20;45.50
792;DHT22;379;49.022;12.148;2022-07-29T11:15:16;30.50;44.50
792;DHT22;379;49.022;12.148;2022-07-29T11:18:06;30.60;42.50
792;DHT22;379;49.022;12.148;2022-07-29T11:20:35;30.70;42.30
792;DHT22;379;49.022;12.148;2022-07-29T11:23:17;30.80;42.60
792;DHT22;379;49.022;12.148;2022-07-29T11:25:44;31.30;42.70
792;DHT22;379;49.022;12.148;2022-07-29T11:28:16;31.80;42.40
792;DHT22;379;49.022;12.148;2022-07-29T11:30:49;32.00;40.60
792;DHT22;379;49.022;12.148;2022-07-29T11:33:30;31.90;40.10
792;DHT22;379;49.022;12.148;2022-07-29T11:36:10;32.10;40.60
792;DHT22;379;49.022;12.148;2022-07-29T11:38:37;32.40;40.20
792;DHT22;379;49.022;12.148;2022-07-29T11:41:20;32.70;40.10
792;DHT22;379;49.022;12.148;2022-07-29T11:43:50;33.00;40.20
792;DHT22;379;49.022;12.148;2022-07-29T11:49:00;33.30;39.50
792;DHT22;379;49.022;12.148;2022-07-29T11:51:28;33.60;39.30
792;DHT22;379;49.022;12.148;2022-07-29T11:53:57;33.90;38.90
792;DHT22;379;49.022;12.148;2022-07-29T11:56:26;34.30;38.00
792;DHT22;379;49.022;12.148;2022-07-29T11:59:03;34.70;37.60
792;DHT22;379;49.022;12.148;2022-07-29T12:01:30;34.90;36.90
792;DHT22;379;49.022;12.148;2022-07-29T12:04:02;34.80;36.70
792;DHT22;379;49.022;12.148;2022-07-29T12:06:30;34.60;36.50
792;DHT22;379;49.022;12.148;2022-07-29T12:08:57;34.20;37.00
792;DHT22;379;49.022;12.148;2022-07-29T12:11:23;34.10;38.50
792;DHT22;379;49.022;12.148;2022-07-29T12:13:51;34.20;38.30
792;DHT22;379;49.022;12.148;2022-07-29T12:16:20;34.50;38.30
792;DHT22;379;49.022;12.148;2022-07-29T12:18:55;34.80;37.50
792;DHT22;379;49.022;12.148;2022-07-29T12:21:22;34.90;37.50
792;DHT22;379;49.022;12.148;2022-07-29T12:23:52;34.80;37.10
792;DHT22;379;49.022;12.148;2022-07-29T12:26:20;34.60;37.40
792;DHT22;379;49.022;12.148;2022-07-29T12:28:47;34.60;38.10
792;DHT22;379;49.022;12.148;2022-07-29T12:31:15;34.80;38.00
792;DHT22;379;49.022;12.148;2022-07-29T12:33:51;34.90;36.80
792;DHT22;379;49.022;12.148;2022-07-29T12:36:19;34.80;37.20
792;DHT22;379;49.022;12.148;2022-07-29T12:38:46;34.60;37.40
792;DHT22;379;49.022;12.148;2022-07-29T12:41:12;34.50;37.80
792;DHT22;379;49.022;12.148;2022-07-29T12:43:52;34.30;38.00
792;DHT22;379;49.022;12.148;2022-07-29T12:46:19;34.40;38.30
792;DHT22;379;49.022;12.148;2022-07-29T12:48:51;34.50;37.70
792;DHT22;379;49.022;12.148;2022-07-29T12:51:28;34.50;37.40
792;DHT22;379;49.022;12.148;2022-07-29T12:54:05;34.60;36.40
792;DHT22;379;49.022;12.148;2022-07-29T12:56:32;34.30;36.00
792;DHT22;379;49.022;12.148;2022-07-29T12:58:59;33.60;37.40
792;DHT22;379;49.022;12.148;2022-07-29T13:01:26;33.30;38.40
792;DHT22;379;49.022;12.148;2022-07-29T13:03:55;33.00;38.90
792;DHT22;379;49.022;12.148;2022-07-29T13:06:31;32.90;39.30
792;DHT22;379;49.022;12.148;2022-07-29T13:08:59;32.90;39.70
792;DHT22;379;49.022;12.148;2022-07-29T13:11:31;32.70;40.30
792;DHT22;379;49.022;12.148;2022-07-29T13:13:58;32.60;40.50
792;DHT22;379;49.022;12.148;2022-07-29T13:16:25;32.50;39.50
792;DHT22;379;49.022;12.148;2022-07-29T13:19:05;32.60;39.30
792;DHT22;379;49.022;12.148;2022-07-29T13:21:32;33.10;39.80
792;DHT22;379;49.022;12.148;2022-07-29T13:23:59;33.70;38.90
792;DHT22;379;49.022;12.148;2022-07-29T13:26:26;34.30;38.20
792;DHT22;379;49.022;12.148;2022-07-29T13:28:53;34.70;37.70
792;DHT22;379;49.022;12.148;2022-07-29T13:31:21;34.90;37.20
792;DHT22;379;49.022;12.148;2022-07-29T13:33:48;34.80;35.60
792;DHT22;379;49.022;12.148;2022-07-29T13:36:16;34.40;36.10
792;DHT22;379;49.022;12.148;2022-07-29T13:38:43;34.10;36.20
792;DHT22;379;49.022;12.148;2022-07-29T13:41:10;33.90;36.70
792;DHT22;379;49.022;12.148;2022-07-29T13:43:36;33.80;37.50
792;DHT22;379;49.022;12.148;2022-07-29T13:46:03;33.90;37.80
792;DHT22;379;49.022;12.148;2022-07-29T13:48:30;34.30;37.80
792;DHT22;379;49.022;12.148;2022-07-29T13:50:56;34.80;36.80
792;DHT22;379;49.022;12.148;2022-07-29T13:53:25;34.90;36.80
792;DHT22;379;49.022;12.148;2022-07-29T13:55:53;35.00;36.20
792;DHT22;379;49.022;12.148;2022-07-29T13:58:20;35.00;37.10
792;DHT22;379;49.022;12.148;2022-07-29T14:00:47;35.10;36.50
792;DHT22;379;49.022;12.148;2022-07-29T14:03:13;35.10;36.50
792;DHT22;379;49.022;12.148;2022-07-29T14:05:40;35.00;36.00
792;DHT22;379;49.022;12.148;2022-07-29T14:08:07;35.00;36.40
792;DHT22;379;49.022;12.148;2022-07-29T14:10:35;35.00;36.50
792;DHT22;379;49.022;12.148;2022-07-29T14:13:02;34.90;35.50
792;DHT22;379;49.022;12.148;2022-07-29T14:15:29;34.80;34.50
792;DHT22;379;49.022;12.148;2022-07-29T14:17:55;34.80;35.30
792;DHT22;379;49.022;12.148;2022-07-29T14:20:22;34.70;35.30
792;DHT22;379;49.022;12.148;2022-07-29T14:22:49;34.70;35.60
792;DHT22;379;49.022;12.148;2022-07-29T14:25:16;34.60;35.90
792;DHT22;379;49.022;12.148;2022-07-29T14:27:44;34.60;36.20
792;DHT22;379;49.022;12.148;2022-07-29T14:30:11;34.40;35.90
792;DHT22;379;49.022;12.148;2022-07-29T14:32:38;34.00;35.70
792;DHT22;379;49.022;12.148;2022-07-29T14:35:06;33.50;36.00
792;DHT22;379;49.022;12.148;2022-07-29T14:37:33;33.10;36.70
792;DHT22;379;49.022;12.148;2022-07-29T14:40:01;32.80;37.80
792;DHT22;379;49.022;12.148;2022-07-29T14:42:29;32.50;37.50
792;DHT22;379;49.022;12.148;2022-07-29T14:44:57;32.40;38.30
792;DHT22;379;49.022;12.148;2022-07-29T14:47:24;32.40;38.60
792;DHT22;379;49.022;12.148;2022-07-29T14:49:51;32.30;37.80
792;DHT22;379;49.022;12.148;2022-07-29T14:52:18;32.10;38.40
792;DHT22;379;49.022;12.148;2022-07-29T14:54:45;32.00;38.50
792;DHT22;379;49.022;12.148;2022-07-29T14:57:11;32.10;39.20
792;DHT22;379;49.022;12.148;2022-07-29T14:59:38;32.20;39.70
792;DHT22;379;49.022;12.148;2022-07-29T15:02:06;32.10;39.20
792;DHT22;379;49.022;12.148;2022-07-29T15:04:33;31.80;39.20
792;DHT22;379;49.022;12.148;2022-07-29T15:07:00;31.30;39.70
792;DHT22;379;49.022;12.148;2022-07-29T15:09:26;30.90;40.20
792;DHT22;379;49.022;12.148;2022-07-29T15:11:53;30.70;41.80
792;DHT22;379;49.022;12.148;2022-07-29T15:14:20;30.70;43.70
792;DHT22;379;49.022;12.148;2022-07-29T15:16:47;30.60;44.90
792;DHT22;379;49.022;12.148;2022-07-29T15:19:15;30.60;45.90
792;DHT22;379;49.022;12.148;2022-07-29T15:21:42;30.60;46.40
792;DHT22;379;49.022;12.148;2022-07-29T15:24:09;30.40;47.30
792;DHT22;379;49.022;12.148;2022-07-29T15:26:35;30.10;48.00
792;DHT22;379;49.022;12.148;2022-07-29T15:29:02;29.80;48.10
792;DHT22;379;49.022;12.148;2022-07-29T15:31:29;29.60;48.20
792;DHT22;379;49.022;12.148;2022-07-29T15:33:56;29.50;48.40
792;DHT22;379;49.022;12.148;2022-07-29T15:36:24;29.30;48.90
792;DHT22;379;49.022;12.148;2022-07-29T15:38:51;29.00;49.30
792;DHT22;379;49.022;12.148;2022-07-29T15:41:19;28.90;49.50
792;DHT22;379;49.022;12.148;2022-07-29T15:43:47;28.80;49.40
792;DHT22;379;49.022;12.148;2022-07-29T15:46:16;28.60;48.60
792;DHT22;379;49.022;12.148;2022-07-29T15:49:01;28.50;48.90
792;DHT22;379;49.022;12.148;2022-07-29T15:51:29;28.30;48.80
792;DHT22;379;49.022;12.148;2022-07-29T15:53:56;28.20;48.90
792;DHT22;379;49.022;12.148;2022-07-29T15:56:23;28.10;48.60
792;DHT22;379;49.022;12.148;2022-07-29T15:58:50;28.10;48.60
792;DHT22;379;49.022;12.148;2022-07-29T16:01:17;27.90;49.00
792;DHT22;379;49.022;12.148;2022-07-29T16:03:44;27.80;49.60
792;DHT22;379;49.022;12.148;2022-07-29T16:06:11;27.60;50.10
792;DHT22;379;49.022;12.148;2022-07-29T16:08:40;27.50;50.70
792;DHT22;379;49.022;12.148;2022-07-29T16:11:06;27.30;51.20
792;DHT22;379;49.022;12.148;2022-07-29T16:13:33;27.20;51.60
792;DHT22;379;49.022;12.148;2022-07-29T16:16:00;27.10;52.10
792;DHT22;379;49.022;12.148;2022-07-29T16:18:26;27.00;52.40
792;DHT22;379;49.022;12.148;2022-07-29T16:20:53;26.90;52.60
792;DHT22;379;49.022;12.148;2022-07-29T16:23:20;26.70;52.80
792;DHT22;379;49.022;12.148;2022-07-29T16:25:50;26.60;53.00
792;DHT22;379;49.022;12.148;2022-07-29T16:28:16;26.50;52.70
792;DHT22;379;49.022;12.148;2022-07-29T16:30:43;26.40;52.80
792;DHT22;379;49.022;12.148;2022-07-29T16:33:10;26.40;52.40
792;DHT22;379;49.022;12.148;2022-07-29T16:35:37;26.30;51.70
792;DHT22;379;49.022;12.148;2022-07-29T16:38:05;26.20;52.00